KLM085 SEQM-SEGU
Flight info
| Callsign | KLM085 |
|---|---|
| Flight time | 0h 31m |
| Altitude | 22000 |
| Route | TEMOX3B TEMOX TEMOX2 |
| Aircraft | B77W/H-SDE1E2E3FGHIJ2J3J4J5M1RWXYZ/LB1D1 |
Departure
| Time | 2026-04-26 17:24 |
|---|---|
| Airport | Mariscal Sucre International Airport (SEQM) |
Arrival
| Time | 2026-04-26 17:55 |
|---|---|
| Airport | José Joaquín de Olmedo International Airport (SEGU) |
| Time | Latitude | Longitude | Altitude | Speed | Heading |
|---|---|---|---|---|---|
| 2026-04-26 17:01 | -0.12430 | -78.35914 | 7847 ft | 0 kts | 267° |
| 2026-04-26 17:14 | -0.12430 | -78.35893 | 7847 ft | 4 kts | 275° |
| 2026-04-26 17:14 | -0.12435 | -78.35867 | 7837 ft | 4 kts | 293° |
| 2026-04-26 17:15 | -0.12465 | -78.35840 | 7846 ft | 0 kts | 360° |
| 2026-04-26 17:17 | -0.12464 | -78.35840 | 7844 ft | 1 kts | 0° |
| 2026-04-26 17:18 | -0.12431 | -78.35840 | 7847 ft | 10 kts | 360° |
| 2026-04-26 17:18 | -0.12371 | -78.35818 | 7845 ft | 7 kts | 60° |
| 2026-04-26 17:18 | -0.12363 | -78.35769 | 7847 ft | 7 kts | 84° |
| 2026-04-26 17:18 | -0.12361 | -78.35720 | 7848 ft | 7 kts | 89° |
| 2026-04-26 17:19 | -0.12369 | -78.35624 | 7849 ft | 7 kts | 124° |
| 2026-04-26 17:19 | -0.12415 | -78.35610 | 7851 ft | 8 kts | 176° |
| 2026-04-26 17:19 | -0.12496 | -78.35607 | 7854 ft | 16 kts | 181° |
| 2026-04-26 17:20 | -0.12640 | -78.35608 | 7863 ft | 25 kts | 175° |
| 2026-04-26 17:20 | -0.12760 | -78.35599 | 7869 ft | 26 kts | 175° |
| 2026-04-26 17:20 | -0.13003 | -78.35588 | 7878 ft | 26 kts | 178° |
| 2026-04-26 17:20 | -0.13170 | -78.35582 | 7886 ft | 26 kts | 178° |
| 2026-04-26 17:21 | -0.13359 | -78.35573 | 7890 ft | 26 kts | 177° |
| 2026-04-26 17:21 | -0.13540 | -78.35565 | 7894 ft | 26 kts | 177° |
| 2026-04-26 17:21 | -0.13720 | -78.35557 | 7911 ft | 26 kts | 177° |
| 2026-04-26 17:21 | -0.13901 | -78.35551 | 7905 ft | 26 kts | 178° |
| 2026-04-26 17:22 | -0.14083 | -78.35545 | 7920 ft | 26 kts | 177° |
| 2026-04-26 17:22 | -0.14172 | -78.35540 | 7917 ft | 10 kts | 176° |
| 2026-04-26 17:22 | -0.14235 | -78.35509 | 7919 ft | 10 kts | 128° |
| 2026-04-26 17:22 | -0.14247 | -78.35439 | 7925 ft | 11 kts | 87° |
| 2026-04-26 17:23 | -0.14225 | -78.35374 | 7920 ft | 11 kts | 26° |
| 2026-04-26 17:23 | -0.14092 | -78.35371 | 7911 ft | 40 kts | 0° |
| 2026-04-26 17:23 | -0.13577 | -78.35392 | 7896 ft | 106 kts | 357° |
| 2026-04-26 17:23 | -0.12641 | -78.35435 | 7865 ft | 161 kts | 357° |
| 2026-04-26 17:24 | -0.11414 | -78.35499 | 7976 ft | 187 kts | 357° |
| 2026-04-26 17:24 | -0.10100 | -78.35580 | 8466 ft | 185 kts | 354° |
| 2026-04-26 17:24 | -0.08772 | -78.35723 | 8896 ft | 198 kts | 356° |
| 2026-04-26 17:24 | -0.07457 | -78.35780 | 9661 ft | 187 kts | 357° |
| 2026-04-26 17:25 | -0.06153 | -78.35826 | 10248 ft | 190 kts | 357° |
| 2026-04-26 17:25 | -0.04768 | -78.35868 | 10527 ft | 213 kts | 357° |
| 2026-04-26 17:25 | -0.03267 | -78.36204 | 10661 ft | 235 kts | 326° |
| 2026-04-26 17:25 | -0.02194 | -78.37508 | 10850 ft | 260 kts | 287° |
| 2026-04-26 17:26 | -0.02074 | -78.39379 | 11076 ft | 284 kts | 261° |
| 2026-04-26 17:26 | -0.02430 | -78.41422 | 11302 ft | 314 kts | 260° |
| 2026-04-26 17:26 | -0.02778 | -78.43661 | 11532 ft | 346 kts | 262° |
| 2026-04-26 17:26 | -0.03100 | -78.46149 | 11774 ft | 375 kts | 263° |
| 2026-04-26 17:27 | -0.03385 | -78.48791 | 12503 ft | 387 kts | 264° |
| 2026-04-26 17:27 | -0.03642 | -78.51508 | 13431 ft | 395 kts | 264° |
| 2026-04-26 17:27 | -0.03888 | -78.54256 | 14462 ft | 399 kts | 264° |
| 2026-04-26 17:27 | -0.04141 | -78.57029 | 15366 ft | 402 kts | 263° |
| 2026-04-26 17:28 | -0.04887 | -78.59704 | 15920 ft | 410 kts | 243° |
| 2026-04-26 17:28 | -0.06553 | -78.62017 | 16786 ft | 410 kts | 225° |
| 2026-04-26 17:28 | -0.08618 | -78.64011 | 17530 ft | 416 kts | 223° |
| 2026-04-26 17:28 | -0.10724 | -78.66031 | 18340 ft | 422 kts | 223° |
| 2026-04-26 17:29 | -0.12846 | -78.68073 | 19215 ft | 425 kts | 223° |
| 2026-04-26 17:29 | -0.14262 | -78.69442 | 19778 ft | 427 kts | 223° |
| 2026-04-26 17:29 | -0.17102 | -78.72201 | 20881 ft | 432 kts | 224° |
| 2026-04-26 17:29 | -0.19258 | -78.74304 | 21678 ft | 435 kts | 224° |
| 2026-04-26 17:30 | -0.21437 | -78.76437 | 22290 ft | 441 kts | 224° |
| 2026-04-26 17:30 | -0.23641 | -78.78596 | 22319 ft | 447 kts | 224° |
| 2026-04-26 17:30 | -0.25862 | -78.80773 | 22331 ft | 447 kts | 224° |
| 2026-04-26 17:30 | -0.28084 | -78.82950 | 22339 ft | 447 kts | 224° |
| 2026-04-26 17:31 | -0.30306 | -78.85128 | 22337 ft | 445 kts | 224° |
| 2026-04-26 17:31 | -0.32512 | -78.87297 | 22345 ft | 444 kts | 224° |
| 2026-04-26 17:31 | -0.34716 | -78.89465 | 22345 ft | 443 kts | 224° |
| 2026-04-26 17:31 | -0.36916 | -78.91628 | 22339 ft | 443 kts | 224° |
| 2026-04-26 17:32 | -0.39090 | -78.93760 | 22349 ft | 444 kts | 224° |
| 2026-04-26 17:32 | -0.41303 | -78.95928 | 22352 ft | 445 kts | 224° |
| 2026-04-26 17:32 | -0.43512 | -78.98094 | 22352 ft | 445 kts | 224° |
| 2026-04-26 17:32 | -0.45720 | -79.00260 | 22358 ft | 446 kts | 224° |
| 2026-04-26 17:33 | -0.47939 | -79.02437 | 22349 ft | 447 kts | 224° |
| 2026-04-26 17:33 | -0.50164 | -79.04620 | 22347 ft | 448 kts | 224° |
| 2026-04-26 17:33 | -0.51641 | -79.06068 | 22347 ft | 448 kts | 224° |
| 2026-04-26 17:34 | -0.56768 | -79.11099 | 22348 ft | 448 kts | 224° |
| 2026-04-26 17:34 | -0.59063 | -79.13135 | 22339 ft | 446 kts | 214° |
| 2026-04-26 17:34 | -0.61796 | -79.14557 | 22361 ft | 441 kts | 203° |
| 2026-04-26 17:34 | -0.64618 | -79.15794 | 22354 ft | 444 kts | 203° |
| 2026-04-26 17:35 | -0.67459 | -79.17044 | 22354 ft | 447 kts | 203° |
| 2026-04-26 17:35 | -0.70308 | -79.18317 | 22360 ft | 449 kts | 204° |
| 2026-04-26 17:35 | -0.73156 | -79.19610 | 22357 ft | 450 kts | 204° |
| 2026-04-26 17:35 | -0.76010 | -79.20920 | 22358 ft | 451 kts | 204° |
| 2026-04-26 17:36 | -0.78856 | -79.22238 | 22353 ft | 451 kts | 204° |
| 2026-04-26 17:36 | -0.81699 | -79.23558 | 22351 ft | 450 kts | 204° |
| 2026-04-26 17:36 | -0.84535 | -79.24876 | 22352 ft | 449 kts | 204° |
| 2026-04-26 17:36 | -0.87340 | -79.26181 | 22341 ft | 449 kts | 204° |
| 2026-04-26 17:37 | -0.90167 | -79.27494 | 22337 ft | 448 kts | 204° |
| 2026-04-26 17:37 | -0.93006 | -79.28813 | 22337 ft | 448 kts | 204° |
| 2026-04-26 17:37 | -0.95827 | -79.30123 | 22063 ft | 447 kts | 204° |
| 2026-04-26 17:38 | -1.01350 | -79.32688 | 20793 ft | 433 kts | 204° |
| 2026-04-26 17:38 | -1.04078 | -79.33953 | 20175 ft | 430 kts | 204° |
| 2026-04-26 17:38 | -1.06785 | -79.35208 | 19555 ft | 427 kts | 204° |
| 2026-04-26 17:38 | -1.09434 | -79.36440 | 18944 ft | 423 kts | 204° |
| 2026-04-26 17:39 | -1.12094 | -79.37675 | 18332 ft | 420 kts | 204° |
| 2026-04-26 17:39 | -1.14734 | -79.38902 | 17726 ft | 417 kts | 204° |
| 2026-04-26 17:39 | -1.17364 | -79.40124 | 17113 ft | 414 kts | 204° |
| 2026-04-26 17:39 | -1.19915 | -79.41309 | 16495 ft | 397 kts | 204° |
| 2026-04-26 17:40 | -1.22418 | -79.42472 | 15932 ft | 395 kts | 204° |
| 2026-04-26 17:40 | -1.23262 | -79.42864 | 15734 ft | 395 kts | 204° |
| 2026-04-26 17:40 | -1.27394 | -79.44781 | 14762 ft | 392 kts | 204° |
| 2026-04-26 17:40 | -1.29038 | -79.45543 | 14387 ft | 392 kts | 204° |
| 2026-04-26 17:41 | -1.31503 | -79.46688 | 13791 ft | 389 kts | 205° |
| 2026-04-26 17:41 | -1.34761 | -79.48202 | 13022 ft | 389 kts | 204° |
| 2026-04-26 17:41 | -1.37205 | -79.49330 | 12448 ft | 386 kts | 204° |
| 2026-04-26 17:41 | -1.38826 | -79.50082 | 12048 ft | 375 kts | 204° |
| 2026-04-26 17:42 | -1.41183 | -79.51183 | 11507 ft | 374 kts | 205° |
| 2026-04-26 17:42 | -1.43517 | -79.52269 | 11043 ft | 371 kts | 205° |
| 2026-04-26 17:42 | -1.45816 | -79.53338 | 10885 ft | 358 kts | 205° |
| 2026-04-26 17:42 | -1.48023 | -79.54362 | 10598 ft | 334 kts | 205° |
| 2026-04-26 17:43 | -1.50034 | -79.55299 | 10423 ft | 303 kts | 205° |
| 2026-04-26 17:43 | -1.51862 | -79.56149 | 10282 ft | 279 kts | 205° |
| 2026-04-26 17:43 | -1.53590 | -79.56951 | 10195 ft | 270 kts | 205° |
| 2026-04-26 17:43 | -1.55282 | -79.57736 | 10087 ft | 266 kts | 204° |
| 2026-04-26 17:44 | -1.56979 | -79.58517 | 9819 ft | 273 kts | 205° |
| 2026-04-26 17:44 | -1.58727 | -79.59336 | 9508 ft | 282 kts | 205° |
| 2026-04-26 17:44 | -1.60521 | -79.60175 | 9178 ft | 285 kts | 205° |
| 2026-04-26 17:44 | -1.62299 | -79.61000 | 8841 ft | 284 kts | 205° |
| 2026-04-26 17:45 | -1.64093 | -79.61831 | 8508 ft | 283 kts | 205° |
| 2026-04-26 17:45 | -1.65879 | -79.62662 | 8178 ft | 284 kts | 205° |
| 2026-04-26 17:45 | -1.67665 | -79.63493 | 7835 ft | 283 kts | 205° |
| 2026-04-26 17:45 | -1.69446 | -79.64319 | 7499 ft | 282 kts | 205° |
| 2026-04-26 17:46 | -1.71224 | -79.65145 | 7172 ft | 281 kts | 205° |
| 2026-04-26 17:46 | -1.72998 | -79.65971 | 6841 ft | 281 kts | 205° |
| 2026-04-26 17:46 | -1.74767 | -79.66795 | 6512 ft | 279 kts | 205° |
| 2026-04-26 17:46 | -1.76492 | -79.67598 | 6179 ft | 267 kts | 205° |
| 2026-04-26 17:47 | -1.78144 | -79.68365 | 5818 ft | 257 kts | 205° |
| 2026-04-26 17:47 | -1.79209 | -79.68859 | 5551 ft | 252 kts | 205° |
| 2026-04-26 17:47 | -1.81266 | -79.69813 | 5028 ft | 241 kts | 205° |
| 2026-04-26 17:47 | -1.82774 | -79.70514 | 4589 ft | 237 kts | 205° |
| 2026-04-26 17:48 | -1.84217 | -79.71186 | 4529 ft | 221 kts | 205° |
| 2026-04-26 17:48 | -1.85590 | -79.71826 | 4400 ft | 217 kts | 205° |
| 2026-04-26 17:48 | -1.86977 | -79.72470 | 4089 ft | 221 kts | 205° |
| 2026-04-26 17:48 | -1.88361 | -79.73115 | 3871 ft | 216 kts | 205° |
| 2026-04-26 17:49 | -1.89700 | -79.73738 | 3744 ft | 210 kts | 205° |
| 2026-04-26 17:49 | -1.91024 | -79.74356 | 3607 ft | 209 kts | 205° |
| 2026-04-26 17:49 | -1.92314 | -79.74954 | 3553 ft | 199 kts | 205° |
| 2026-04-26 17:49 | -1.93548 | -79.75557 | 3408 ft | 198 kts | 209° |
| 2026-04-26 17:50 | -1.94739 | -79.76222 | 3242 ft | 195 kts | 210° |
| 2026-04-26 17:50 | -1.95910 | -79.76887 | 3062 ft | 192 kts | 211° |
| 2026-04-26 17:50 | -1.97058 | -79.77566 | 2900 ft | 190 kts | 211° |
| 2026-04-26 17:50 | -1.98203 | -79.78224 | 2735 ft | 190 kts | 210° |
| 2026-04-26 17:51 | -1.99335 | -79.78865 | 2559 ft | 189 kts | 210° |
| 2026-04-26 17:51 | -2.00436 | -79.79498 | 2422 ft | 175 kts | 210° |
| 2026-04-26 17:51 | -2.01460 | -79.80090 | 2250 ft | 166 kts | 210° |
| 2026-04-26 17:51 | -2.02445 | -79.80661 | 2156 ft | 162 kts | 210° |
| 2026-04-26 17:52 | -2.03430 | -79.81233 | 2133 ft | 165 kts | 209° |
| 2026-04-26 17:52 | -2.04432 | -79.81813 | 2085 ft | 167 kts | 209° |
| 2026-04-26 17:52 | -2.05426 | -79.82388 | 2069 ft | 164 kts | 209° |
| 2026-04-26 17:52 | -2.06423 | -79.82964 | 1939 ft | 168 kts | 210° |
| 2026-04-26 17:53 | -2.07406 | -79.83536 | 1714 ft | 157 kts | 209° |
| 2026-04-26 17:53 | -2.08322 | -79.84066 | 1528 ft | 148 kts | 209° |
| 2026-04-26 17:53 | -2.09207 | -79.84578 | 1322 ft | 149 kts | 208° |
| 2026-04-26 17:54 | -2.10990 | -79.85610 | 934 ft | 148 kts | 208° |
| 2026-04-26 17:54 | -2.11882 | -79.86127 | 735 ft | 148 kts | 208° |
| 2026-04-26 17:54 | -2.12770 | -79.86641 | 538 ft | 147 kts | 208° |
| 2026-04-26 17:54 | -2.13650 | -79.87152 | 350 ft | 146 kts | 209° |
| 2026-04-26 17:55 | -2.14531 | -79.87662 | 144 ft | 146 kts | 209° |
| 2026-04-26 17:55 | -2.15407 | -79.88168 | 27 ft | 140 kts | 209° |
| 2026-04-26 17:55 | -2.16135 | -79.88589 | 28 ft | 96 kts | 210° |
| 2026-04-26 17:55 | -2.16546 | -79.88826 | 28 ft | 43 kts | 210° |
| 2026-04-26 17:56 | -2.16667 | -79.88895 | 27 ft | 12 kts | 210° |
| 2026-04-26 17:56 | -2.16694 | -79.89007 | 28 ft | 12 kts | 331° |
| 2026-04-26 17:57 | -2.16542 | -79.88938 | 27 ft | 12 kts | 31° |
| 2026-04-26 17:57 | -2.16467 | -79.88893 | 28 ft | 12 kts | 31° |
| 2026-04-26 17:57 | -2.16393 | -79.88849 | 27 ft | 12 kts | 31° |
| 2026-04-26 17:57 | -2.16318 | -79.88804 | 27 ft | 12 kts | 31° |
| 2026-04-26 17:58 | -2.16093 | -79.88677 | 28 ft | 12 kts | 30° |
| 2026-04-26 17:59 | -2.15942 | -79.88590 | 27 ft | 13 kts | 30° |
| 2026-04-26 17:59 | -2.15862 | -79.88545 | 27 ft | 13 kts | 30° |
| 2026-04-26 17:59 | -2.15782 | -79.88500 | 27 ft | 13 kts | 29° |
| 2026-04-26 17:59 | -2.15701 | -79.88455 | 27 ft | 13 kts | 29° |
| 2026-04-26 18:00 | -2.15621 | -79.88410 | 26 ft | 13 kts | 29° |
| 2026-04-26 18:00 | -2.15540 | -79.88366 | 26 ft | 13 kts | 28° |
| 2026-04-26 18:00 | -2.15462 | -79.88316 | 26 ft | 14 kts | 31° |
| 2026-04-26 18:00 | -2.15382 | -79.88268 | 27 ft | 14 kts | 31° |
| 2026-04-26 18:01 | -2.15297 | -79.88229 | 30 ft | 14 kts | 12° |
| 2026-04-26 18:01 | -2.15237 | -79.88272 | 27 ft | 11 kts | 301° |
| 2026-04-26 18:01 | -2.15197 | -79.88341 | 27 ft | 11 kts | 300° |
| 2026-04-26 18:01 | -2.15152 | -79.88396 | 27 ft | 8 kts | 340° |
| 2026-04-26 18:02 | -2.15101 | -79.88393 | 27 ft | 8 kts | 328° |
| 2026-04-26 18:02 | -2.15082 | -79.88421 | 27 ft | 6 kts | 299° |
| 2026-04-26 18:02 | -2.15066 | -79.88452 | 27 ft | 2 kts | 297° |
| 2026-04-26 18:02 | -2.15061 | -79.88462 | 27 ft | 2 kts | 297° |
| 2026-04-26 18:03 | -2.15060 | -79.88464 | 27 ft | 0 kts | 297° |